Ipoh, Malaysia
Current Conditions -  °F | °C
As of 5:00 AM on Thursday 27 Nov 2014 (Local Time) from WMKI Reporting Station
Broken Clouds Broken Clouds  
Wind Chill: 75°   Ceiling: 29000
Heat Index: 75°   Visibility: 6mi
Dew Point: 73°   Wind: 5mph
Humidity: 94%   Direction: 30°NNE
Pressure: 29.74"   Gusts: NA
Location:  4.6°N, 101.07°E
Report Text: WMKI 262100Z 03004KT 350V060 9999 FEW005 BKN290 24/23 Q1007
Loading
Personal Weather Stations






























Interactive Weather Map New forecast layout! Learn more

10-Day Weather Forecast

Advertisements
Track Severe Weather on mobile